Kelmont East, Nevada
Current Conditions -  °F | °C
As of 3:53 PM on Wednesday 22 Oct 2014 (Local Time) from KTVL Reporting Station
Clear Clear  
Wind Chill: 18°   Ceiling: Unl
Heat Index: 18°   Visibility: 10mi
Dew Point: -3°   Wind: 13mph
Humidity: 24%   Direction: 200°SSW
Pressure: 30.15"   Gusts: 20mph
Location:  39.0164°N, 119.925°W
Report Text: KTVL 222253Z AUTO 20011G17KT 10SM CLR 18/M03 A3015 RMK AO2 SLP179 T01781033
Loading
Personal Weather Stations






























Interactive Weather Map
Tropical Storm Tracking
New forecast layout! Learn more

10-Day Weather Forecast

Advertisements
Track Severe Weather on mobile